Caldas1b

Aeroportos (Relatórios METAR)


LPPT - Lisboa
Distância da estação: SSE 78km
Actualizado: 02/03/2024 10:00
Parc. nublado
Parc. nublado
 Vento de W
Vento: W 30 km/h
Temperatura: 14°C
Pt. Orvalho: 9°C
Humidade: 72%
Barómetro: 1013 hPa
Nuvens: Parc. nublado
Visibilidade: 10 km
Nebulosidade: Parc. nublado 762 m
2024/03/02 10:00 LPPT 021000Z 26016KT 9999 SCT025 14/09 Q1013
LPPR - Porto
Distância da estação: NW 205km
Actualizado: 02/03/2024 10:00
Chuva fraca, Aguaceiros, Nublado
Chuva fraca, Aguaceiros, Nublado
 Vento de W
Vento: W 20 km/h
Temperatura: 12°C
Pt. Orvalho: 11°C
Humidade: 94%
Barómetro: 1005 hPa
Resumo: Chuva fraca, Aguaceiros
Nuvens: Pouco Nublado
Visibilidade: 9 km
Nebulosidade: Pouco Nublado 274 m
Parc. nublado 366 m
Pouco Nublado 610 m
2024/03/02 10:00 LPPR 021000Z 28011KT 240V310 9000 -SHRA FEW009 SCT012 FEW020CB 12/11 Q1005 RESHRA
 
LPFR - Faro
Distância da estação: SE 286km
Actualizado: 02/03/2024 10:00
Pouco Nublado
Pouco Nublado
 Vento de W
Vento: W 15 km/h
Temperatura: 14°C
Pt. Orvalho: 11°C
Humidade: 82%
Barómetro: 1017 hPa
Nuvens: Pouco Nublado
Visibilidade: 10 km
Nebulosidade: Pouco Nublado 549 m
2024/03/02 10:00 LPFR 021000Z 27008KT 9999 FEW018 14/11 Q1017
LPBJ - Beja
Distância da estação: ESE 190km
Actualizado: 02/03/2024 10:00
Parc. nublado
Parc. nublado
 Vento de WSW
Vento: WSW 19 km/h
Temperatura: 13°C
Pt. Orvalho: 10°C
Humidade: 82%
Barómetro: 1015 hPa
Nuvens: Parc. nublado
Visibilidade: 10 km
Nebulosidade: Pouco Nublado 549 m
Parc. nublado 1219 m
2024/03/02 10:00 LPBJ 021000Z 24010KT 9999 FEW018 SCT040 13/10 Q1015
 
LPMA - Funchal
Distância da estação: SSW 1025km
Actualizado: 02/03/2024 10:00
Pouco Nublado
Pouco Nublado
 Vento de N
Vento: N 19 km/h, Rajada: 37 km/h
Temperatura: 17°C
Pt. Orvalho: 11°C
Humidade: 68%
Barómetro: 1024 hPa
Nuvens: Pouco Nublado
Visibilidade: 10 km
Nebulosidade: Parc. nublado 457 m
Pouco Nublado 488 m
2024/03/02 10:00 LPMA 021000Z 36010G20KT 310V030 9999 SCT015 FEW016CB 17/11 Q1024
LPPD - Ponta Delgada
Distância da estação: W 1450km
Actualizado: 02/03/2024 10:00
Muito nublado
Muito nublado
 Vento de NNW
Vento: NNW 9 km/h
Temperatura: 14°C
Pt. Orvalho: 8°C
Humidade: 67%
Barómetro: 1033 hPa
Nuvens: Muito nublado
Visibilidade: 10 km
Nebulosidade: Pouco Nublado 610 m
Muito nublado 1006 m
2024/03/02 10:00 LPPD 021000Z 34005KT 9999 FEW020 BKN033 14/08 Q1033
 
LPCS - Cascais
Distância da estação: SSW 77km
Actualizado: 02/03/2024 10:00
Parc. nublado
Parc. nublado
 Vento de W
Vento: W 24 km/h, Rajada: 43 km/h
Temperatura: 15°C
Pt. Orvalho: 10°C
Humidade: 72%
Barómetro: 1014 hPa
Nuvens: Parc. nublado
Visibilidade: 10 km
Nebulosidade: Pouco Nublado 671 m
Parc. nublado 792 m
2024/03/02 10:00 LPCS 021000Z 26013G23KT 230V290 9999 FEW022 SCT026 15/10 Q1014
LPMR - Monte Real
Distância da estação: N 55km
Actualizado: 02/03/2024 10:00
Chuva fraca, Aguaceiros, Muito Nublado
Chuva fraca, Aguaceiros, Muito Nublado
 Vento de W
Vento: W 20 km/h, Rajada: 39 km/h
Temperatura: 13°C
Pt. Orvalho: 11°C
Humidade: 88%
Barómetro: 1010 hPa
Resumo: Chuva fraca, Aguaceiros
Nuvens: Muito nublado
Visibilidade: 8 km
Nebulosidade: Muito nublado 579 m
Muito nublado 914 m
2024/03/02 10:00 LPMR 021000Z 27011G21KT 230V290 8000 -SHRA BKN019 BKN030 13/11 Q1010

Phoenix Radar Flight Tracking

Map courtesy of flightradar24.com